createdAt,value
2023-01-27T00:00:03.655Z,6.68
2023-01-27T00:01:03.507Z,6.70
2023-01-27T00:01:43.576Z,6.76
2023-01-27T00:02:23.508Z,6.78
2023-01-27T00:03:10.540Z,6.69
2023-01-27T00:04:04.516Z,6.70
2023-01-27T00:04:58.495Z,6.80
2023-01-27T00:05:52.550Z,6.64
2023-01-27T00:06:46.505Z,6.63
2023-01-27T00:07:40.494Z,6.72
2023-01-27T00:08:27.519Z,6.83
2023-01-27T00:09:01.551Z,6.82
2023-01-27T00:09:49.497Z,6.80
2023-01-27T00:10:25.621Z,6.79
2023-01-27T00:11:31.730Z,6.88
2023-01-27T00:12:24.566Z,6.71
2023-01-27T00:13:30.503Z,6.82
2023-01-27T00:14:04.553Z,6.72
2023-01-27T00:14:51.492Z,6.86
2023-01-27T00:15:25.537Z,6.83
2023-01-27T00:16:13.563Z,6.77
2023-01-27T00:16:47.574Z,6.83
2023-01-27T00:17:34.499Z,6.87
2023-01-27T00:18:08.623Z,6.86
2023-01-27T00:18:55.499Z,6.88
2023-01-27T00:19:29.538Z,6.75
2023-01-27T00:20:17.486Z,6.86
2023-01-27T00:21:09.966Z,6.85
2023-01-27T00:22:19.529Z,6.75
2023-01-27T00:23:28.687Z,6.91
2023-01-27T00:24:38.540Z,6.96
2023-01-27T00:25:12.574Z,6.86
2023-01-27T00:26:05.497Z,6.81
2023-01-27T00:26:39.534Z,6.83
2023-01-27T00:27:26.525Z,6.91
2023-01-27T00:28:00.520Z,6.88
2023-01-27T00:28:49.486Z,6.92
2023-01-27T00:29:23.588Z,6.87
2023-01-27T00:30:04.490Z,6.91
2023-01-27T00:30:44.562Z,6.85
2023-01-27T00:31:43.498Z,6.76
2023-01-27T00:32:42.992Z,6.81
2023-01-27T00:33:35.473Z,6.81
2023-01-27T00:34:29.482Z,6.67
2023-01-27T00:35:23.492Z,6.82
2023-01-27T00:36:20.445Z,6.75
2023-01-27T00:37:14.489Z,6.85
2023-01-27T00:38:08.467Z,6.74
2023-01-27T00:39:02.472Z,6.76
2023-01-27T00:39:56.500Z,6.79
2023-01-27T00:40:43.497Z,6.83
2023-01-27T00:41:20.562Z,6.81
2023-01-27T00:42:07.464Z,6.84
2023-01-27T00:42:41.535Z,6.86
2023-01-27T00:43:28.464Z,6.72
2023-01-27T00:44:02.581Z,6.78
2023-01-27T00:45:09.473Z,6.89
2023-01-27T00:45:56.492Z,6.87
2023-01-27T00:46:50.490Z,6.88
2023-01-27T00:47:44.470Z,6.90
2023-01-27T00:48:38.459Z,6.90
2023-01-27T00:49:32.462Z,6.85
2023-01-27T00:50:26.470Z,6.90
2023-01-27T00:51:13.479Z,6.92
2023-01-27T00:51:47.508Z,6.78
2023-01-27T00:52:34.447Z,6.89
2023-01-27T00:53:08.484Z,6.94
2023-01-27T00:53:55.448Z,6.82
2023-01-27T00:54:29.488Z,6.92
2023-01-27T00:55:17.435Z,6.90
2023-01-27T00:55:51.500Z,6.96
2023-01-27T00:56:38.467Z,6.78
2023-01-27T00:57:12.508Z,6.87
2023-01-27T00:57:59.462Z,6.99
2023-01-27T00:58:34.561Z,6.98
2023-01-27T00:59:21.456Z,6.95
2023-01-27T00:59:55.523Z,6.94
2023-01-27T01:00:42.437Z,6.96
2023-01-27T01:01:20.493Z,6.95
2023-01-27T01:02:00.509Z,7.10
2023-01-27T01:02:41.736Z,7.08
2023-01-27T01:03:21.433Z,7.00
2023-01-27T01:04:01.546Z,6.93
2023-01-27T01:04:41.437Z,7.05
2023-01-27T01:05:21.550Z,6.89
2023-01-27T01:06:01.432Z,6.85
2023-01-27T01:06:41.505Z,7.01
2023-01-27T01:07:21.452Z,6.99
2023-01-27T01:08:01.557Z,6.72
2023-01-27T01:08:43.452Z,6.97
2023-01-27T01:09:23.529Z,6.98
2023-01-27T01:10:03.424Z,6.99
2023-01-27T01:10:46.554Z,6.95
2023-01-27T01:11:28.443Z,6.93
2023-01-27T01:12:08.496Z,6.78
2023-01-27T01:12:48.433Z,6.88
2023-01-27T01:13:28.572Z,6.91
2023-01-27T01:14:08.460Z,6.88
2023-01-27T01:14:48.491Z,6.91
2023-01-27T01:15:28.415Z,6.94
2023-01-27T01:16:18.505Z,6.97
2023-01-27T01:16:58.422Z,6.96
2023-01-27T01:17:38.519Z,6.93
2023-01-27T01:18:22.440Z,7.03
2023-01-27T01:19:04.521Z,6.98
2023-01-27T01:19:44.411Z,6.92
2023-01-27T01:20:24.758Z,6.95
2023-01-27T01:21:04.448Z,6.97
2023-01-27T01:21:44.500Z,6.98
2023-01-27T01:22:24.436Z,6.90
2023-01-27T01:23:04.578Z,7.03
2023-01-27T01:23:47.462Z,7.05
2023-01-27T01:24:27.552Z,6.79
2023-01-27T01:25:07.415Z,6.97
2023-01-27T01:25:48.474Z,6.99
2023-01-27T01:26:28.405Z,7.07
2023-01-27T01:27:08.467Z,7.04
2023-01-27T01:27:52.730Z,7.01
2023-01-27T01:28:32.460Z,7.07
2023-01-27T01:29:12.424Z,7.05
2023-01-27T01:29:52.497Z,7.02
2023-01-27T01:30:33.413Z,7.07
2023-01-27T01:31:20.486Z,6.98
2023-01-27T01:32:01.411Z,7.12
2023-01-27T01:32:41.426Z,7.14
2023-01-27T01:33:22.401Z,6.95
2023-01-27T01:34:02.485Z,7.13
2023-01-27T01:34:44.433Z,7.14
2023-01-27T01:35:27.299Z,7.12
2023-01-27T01:36:20.410Z,7.00
2023-01-27T01:37:00.685Z,7.18
2023-01-27T01:37:40.394Z,7.18
2023-01-27T01:38:21.465Z,7.11
2023-01-27T01:39:05.429Z,7.14
2023-01-27T01:39:52.414Z,7.18
2023-01-27T01:40:47.414Z,7.23
2023-01-27T01:41:42.413Z,7.08
2023-01-27T01:42:36.405Z,7.24
2023-01-27T01:43:34.424Z,7.22
2023-01-27T01:44:57.446Z,7.22
2023-01-27T01:46:01.387Z,7.10
2023-01-27T01:46:55.456Z,7.19
2023-01-27T01:47:49.431Z,7.15
2023-01-27T01:49:02.605Z,7.12
2023-01-27T01:49:58.401Z,7.07
2023-01-27T01:50:54.402Z,7.05
2023-01-27T01:51:53.380Z,6.94
2023-01-27T01:52:47.386Z,7.02
2023-01-27T01:53:49.398Z,7.01
2023-01-27T01:54:56.385Z,6.97
2023-01-27T01:55:37.397Z,7.01
2023-01-27T01:56:28.438Z,7.07
2023-01-27T01:57:15.367Z,7.07
2023-01-27T01:57:56.417Z,7.08
2023-01-27T01:58:37.381Z,6.99
2023-01-27T01:59:29.471Z,6.99
2023-01-27T02:00:15.697Z,6.84
2023-01-27T02:00:56.503Z,6.99
2023-01-27T02:01:36.369Z,6.93
2023-01-27T02:02:25.188Z,6.96
2023-01-27T02:03:08.375Z,6.83
2023-01-27T02:03:50.409Z,6.95
2023-01-27T02:04:34.362Z,6.97
2023-01-27T02:05:31.370Z,7.01
2023-01-27T02:06:25.359Z,6.94
2023-01-27T02:07:38.361Z,7.01
2023-01-27T02:09:00.358Z,6.99
2023-01-27T02:09:54.364Z,7.02
2023-01-27T02:10:48.390Z,6.88
2023-01-27T02:11:42.393Z,7.01
2023-01-27T02:12:36.357Z,6.98
2023-01-27T02:13:30.391Z,6.84
2023-01-27T02:14:26.387Z,7.06
2023-01-27T02:15:22.385Z,6.96
2023-01-27T02:16:09.408Z,7.08
2023-01-27T02:16:43.504Z,7.05
2023-01-27T02:17:30.344Z,7.09
2023-01-27T02:18:05.469Z,7.02
2023-01-27T02:18:52.354Z,7.07
2023-01-27T02:19:41.754Z,7.07
2023-01-27T02:20:53.408Z,7.05
2023-01-27T02:21:34.391Z,6.97
2023-01-27T02:22:43.391Z,7.05
2023-01-27T02:23:58.392Z,7.02
2023-01-27T02:24:58.355Z,6.98
2023-01-27T02:26:02.360Z,6.93
2023-01-27T02:26:52.396Z,7.01
2023-01-27T02:27:33.431Z,7.04
2023-01-27T02:28:15.379Z,6.91
2023-01-27T02:29:12.469Z,6.96
2023-01-27T02:29:52.348Z,6.89
2023-01-27T02:30:32.415Z,6.86
2023-01-27T02:31:12.445Z,6.83
2023-01-27T02:31:59.384Z,6.90
2023-01-27T02:32:34.620Z,6.86
2023-01-27T02:33:29.356Z,6.88
2023-01-27T02:34:30.754Z,6.89
2023-01-27T02:35:19.345Z,6.88
2023-01-27T02:36:12.399Z,6.93
2023-01-27T02:37:05.369Z,6.86
2023-01-27T02:37:39.329Z,6.77
2023-01-27T02:38:28.324Z,6.86
2023-01-27T02:39:02.963Z,6.86
2023-01-27T02:39:55.365Z,6.83
2023-01-27T02:40:30.091Z,6.87
2023-01-27T02:41:48.323Z,6.89
2023-01-27T02:42:29.352Z,6.87
2023-01-27T02:43:11.381Z,6.78
2023-01-27T02:43:51.318Z,6.87
2023-01-27T02:44:31.406Z,6.84
2023-01-27T02:45:12.594Z,6.90
2023-01-27T02:45:53.464Z,6.87
2023-01-27T02:46:34.377Z,6.95
2023-01-27T02:47:14.488Z,6.95
2023-01-27T02:47:54.402Z,6.90
2023-01-27T02:48:34.356Z,6.88
2023-01-27T02:49:14.559Z,6.94
2023-01-27T02:49:54.433Z,6.94
2023-01-27T02:50:35.329Z,6.98
2023-01-27T02:51:15.403Z,7.00
2023-01-27T02:51:55.322Z,6.95
2023-01-27T02:52:35.377Z,6.88
2023-01-27T02:53:16.345Z,6.78
2023-01-27T02:53:56.377Z,6.87
2023-01-27T02:54:37.308Z,6.96
2023-01-27T02:55:17.375Z,6.92
2023-01-27T02:55:57.326Z,6.85
2023-01-27T02:56:37.383Z,6.70
2023-01-27T02:57:17.320Z,6.88
2023-01-27T02:57:57.430Z,6.86
2023-01-27T02:58:38.355Z,6.89
2023-01-27T02:59:18.371Z,6.85
2023-01-27T02:59:58.335Z,6.82
2023-01-27T03:00:38.371Z,6.94
2023-01-27T03:01:18.356Z,6.92
2023-01-27T03:01:58.387Z,6.85
2023-01-27T03:02:39.367Z,6.81
2023-01-27T03:03:19.373Z,6.84
2023-01-27T03:03:59.325Z,6.80
2023-01-27T03:04:39.364Z,6.76
2023-01-27T03:05:21.355Z,6.91
2023-01-27T03:06:01.394Z,6.83
2023-01-27T03:06:42.296Z,6.82
2023-01-27T03:07:22.382Z,6.86
2023-01-27T03:08:02.327Z,6.86
2023-01-27T03:08:43.364Z,6.84
2023-01-27T03:09:23.319Z,6.81
2023-01-27T03:10:03.378Z,6.76
2023-01-27T03:10:44.292Z,6.71
2023-01-27T03:11:42.802Z,6.78
2023-01-27T03:12:26.293Z,6.67
2023-01-27T03:13:06.365Z,6.70
2023-01-27T03:13:47.316Z,6.66
2023-01-27T03:14:52.333Z,6.59
2023-01-27T03:15:44.425Z,6.76
2023-01-27T03:16:49.295Z,6.64
2023-01-27T03:17:41.578Z,6.69
2023-01-27T03:18:29.339Z,6.67
2023-01-27T03:19:02.970Z,6.70
2023-01-27T03:19:52.302Z,6.74
2023-01-27T03:20:26.114Z,6.58
2023-01-27T03:21:19.292Z,6.62
2023-01-27T03:21:56.241Z,6.73
2023-01-27T03:22:43.290Z,6.70
2023-01-27T03:23:19.094Z,6.67
2023-01-27T03:24:07.301Z,6.54
2023-01-27T03:24:40.991Z,6.60
2023-01-27T03:25:22.308Z,6.61
2023-01-27T03:25:56.356Z,6.69
2023-01-27T03:26:30.150Z,6.61
2023-01-27T03:27:11.303Z,6.72
2023-01-27T03:27:45.717Z,6.75
2023-01-27T03:28:20.055Z,6.75
2023-01-27T03:29:19.285Z,6.78
2023-01-27T03:29:56.087Z,6.80
2023-01-27T03:30:37.388Z,6.68
2023-01-27T03:31:19.935Z,6.74
2023-01-27T03:32:00.335Z,6.77
2023-01-27T03:32:46.690Z,6.79
2023-01-27T03:33:27.304Z,6.92
2023-01-27T03:34:07.410Z,6.94
2023-01-27T03:34:47.317Z,6.93
2023-01-27T03:35:34.219Z,6.96
2023-01-27T03:36:33.304Z,6.90
2023-01-27T03:37:32.809Z,6.90
2023-01-27T03:38:39.361Z,6.92
2023-01-27T03:39:31.848Z,6.91
2023-01-27T03:40:39.347Z,6.87
2023-01-27T03:41:31.947Z,6.69
2023-01-27T03:42:32.273Z,6.79
2023-01-27T03:43:31.043Z,6.84
2023-01-27T03:44:30.274Z,6.90
2023-01-27T03:45:28.822Z,6.75
2023-01-27T03:46:22.368Z,6.92
2023-01-27T03:47:03.647Z,6.93
2023-01-27T03:47:43.339Z,6.91
2023-01-27T03:48:23.360Z,6.91
2023-01-27T03:49:03.268Z,6.82
2023-01-27T03:49:43.331Z,6.99
2023-01-27T03:50:25.266Z,6.86
2023-01-27T03:51:07.043Z,6.94
2023-01-27T03:51:47.282Z,6.93
2023-01-27T03:52:27.393Z,6.88
2023-01-27T03:53:10.318Z,6.78
2023-01-27T03:53:50.308Z,6.70
2023-01-27T03:54:30.268Z,6.81
2023-01-27T03:55:11.639Z,6.74
2023-01-27T03:55:55.246Z,6.86
2023-01-27T03:56:35.293Z,6.88
2023-01-27T03:57:15.271Z,6.76
2023-01-27T03:57:56.691Z,6.84
2023-01-27T03:58:40.278Z,6.84
2023-01-27T03:59:21.383Z,6.89
2023-01-27T04:00:01.265Z,6.87
2023-01-27T04:00:41.338Z,6.90
2023-01-27T04:01:25.273Z,6.87
2023-01-27T04:02:24.064Z,6.90
2023-01-27T04:03:23.254Z,6.87
2023-01-27T04:04:22.284Z,6.90
2023-01-27T04:05:15.508Z,6.86
2023-01-27T04:06:21.288Z,6.79
2023-01-27T04:06:56.347Z,6.84
2023-01-27T04:07:44.237Z,6.93
2023-01-27T04:08:18.307Z,6.96
2023-01-27T04:09:06.246Z,6.94
2023-01-27T04:09:50.242Z,6.85
2023-01-27T04:10:44.263Z,6.83
2023-01-27T04:11:56.416Z,6.87
2023-01-27T04:12:50.269Z,6.83
2023-01-27T04:13:44.242Z,6.89
2023-01-27T04:14:50.250Z,6.98
2023-01-27T04:15:45.291Z,6.76
2023-01-27T04:16:39.280Z,6.85
2023-01-27T04:17:33.271Z,6.95
2023-01-27T04:18:27.249Z,6.97
2023-01-27T04:19:24.226Z,6.97
2023-01-27T04:20:15.258Z,6.91
2023-01-27T04:20:49.281Z,6.79
2023-01-27T04:21:36.226Z,6.90
2023-01-27T04:22:10.314Z,6.84
2023-01-27T04:22:57.232Z,6.85
2023-01-27T04:23:31.330Z,6.95
2023-01-27T04:24:41.258Z,6.84
2023-01-27T04:25:23.253Z,6.94
2023-01-27T04:26:17.286Z,6.91
2023-01-27T04:27:17.267Z,6.88
2023-01-27T04:28:11.243Z,6.91
2023-01-27T04:29:05.219Z,6.97
2023-01-27T04:29:59.283Z,6.93
2023-01-27T04:30:46.277Z,7.01
2023-01-27T04:31:20.321Z,7.00
2023-01-27T04:32:08.241Z,6.91
2023-01-27T04:32:42.311Z,6.99
2023-01-27T04:33:29.224Z,7.02
2023-01-27T04:34:03.269Z,7.03
2023-01-27T04:34:50.210Z,6.97
2023-01-27T04:35:27.884Z,6.98
2023-01-27T04:36:15.258Z,6.94
2023-01-27T04:36:56.238Z,7.08
2023-01-27T04:37:37.236Z,7.12
2023-01-27T04:38:18.275Z,7.15
2023-01-27T04:38:58.193Z,6.95
2023-01-27T04:39:39.279Z,6.96
2023-01-27T04:40:20.217Z,7.07
2023-01-27T04:41:00.279Z,7.02
2023-01-27T04:41:40.233Z,6.98
2023-01-27T04:42:20.284Z,6.78
2023-01-27T04:43:01.225Z,6.97
2023-01-27T04:43:41.270Z,6.92
2023-01-27T04:44:22.209Z,6.77
2023-01-27T04:45:02.271Z,6.88
2023-01-27T04:45:42.211Z,6.90
2023-01-27T04:46:22.395Z,6.95
2023-01-27T04:47:02.240Z,6.85
2023-01-27T04:47:42.291Z,6.89
2023-01-27T04:48:22.228Z,6.88
2023-01-27T04:49:02.319Z,6.84
2023-01-27T04:49:42.205Z,6.75
2023-01-27T04:50:22.243Z,6.64
2023-01-27T04:51:02.202Z,6.62
2023-01-27T04:51:42.289Z,6.66
2023-01-27T04:52:22.234Z,6.57
2023-01-27T04:53:02.242Z,6.50
2023-01-27T04:53:42.204Z,6.56
2023-01-27T04:54:22.285Z,6.60
2023-01-27T04:55:03.202Z,6.55
2023-01-27T04:55:43.293Z,6.47
2023-01-27T04:56:40.217Z,6.48
2023-01-27T04:57:20.305Z,6.64
2023-01-27T04:58:00.247Z,6.60
2023-01-27T04:58:40.255Z,6.60
2023-01-27T04:59:24.208Z,6.57
2023-01-27T05:00:04.342Z,6.54
2023-01-27T05:00:44.183Z,6.63
2023-01-27T05:01:25.255Z,6.59
2023-01-27T05:02:06.262Z,6.53
2023-01-27T05:02:46.302Z,6.55
2023-01-27T05:03:27.207Z,6.49
2023-01-27T05:04:07.245Z,6.50
2023-01-27T05:04:47.220Z,6.42
2023-01-27T05:05:27.247Z,6.46
2023-01-27T05:06:07.191Z,6.30
2023-01-27T05:06:47.241Z,6.39
2023-01-27T05:07:28.189Z,6.16
2023-01-27T05:08:13.239Z,6.05
2023-01-27T05:08:54.228Z,5.77
2023-01-27T05:09:34.259Z,5.84
2023-01-27T05:10:15.178Z,5.73
2023-01-27T05:10:55.475Z,5.89
2023-01-27T05:11:36.177Z,5.72
2023-01-27T05:12:16.237Z,5.91
2023-01-27T05:12:56.158Z,5.86
2023-01-27T05:13:36.293Z,5.84
2023-01-27T05:14:16.248Z,5.79
2023-01-27T05:14:56.273Z,5.94
2023-01-27T05:15:37.225Z,5.77
2023-01-27T05:16:27.706Z,5.71
2023-01-27T05:17:08.249Z,5.86
2023-01-27T05:17:48.239Z,5.89
2023-01-27T05:18:28.192Z,5.84
2023-01-27T05:19:08.336Z,5.87
2023-01-27T05:19:49.200Z,5.74
2023-01-27T05:20:29.247Z,5.79
2023-01-27T05:21:10.193Z,5.85
2023-01-27T05:21:50.248Z,5.81
2023-01-27T05:22:30.183Z,5.85
2023-01-27T05:23:29.017Z,5.79
2023-01-27T05:24:10.206Z,5.90
2023-01-27T05:24:57.180Z,5.95
2023-01-27T05:25:51.177Z,5.93
2023-01-27T05:26:45.143Z,5.82
2023-01-27T05:27:39.144Z,5.87
2023-01-27T05:28:33.181Z,5.89
2023-01-27T05:29:27.236Z,5.79
2023-01-27T05:30:15.200Z,5.84
2023-01-27T05:30:49.318Z,5.81
2023-01-27T05:31:41.213Z,5.70
2023-01-27T05:32:15.233Z,5.65
2023-01-27T05:33:02.167Z,5.74
2023-01-27T05:33:36.262Z,5.78
2023-01-27T05:34:23.155Z,5.75
2023-01-27T05:34:57.223Z,5.76
2023-01-27T05:35:40.192Z,5.69
2023-01-27T05:36:22.236Z,5.62
2023-01-27T05:37:03.177Z,5.72
2023-01-27T05:37:43.304Z,5.74
2023-01-27T05:38:23.146Z,5.76
2023-01-27T05:39:06.564Z,5.77
2023-01-27T05:39:48.153Z,5.68
2023-01-27T05:40:28.226Z,5.68
2023-01-27T05:41:12.259Z,5.66
2023-01-27T05:41:53.613Z,5.54
2023-01-27T05:42:33.162Z,5.71
2023-01-27T05:43:13.199Z,5.79
2023-01-27T05:43:59.355Z,5.79
2023-01-27T05:44:39.196Z,5.74
2023-01-27T05:45:19.139Z,5.76
2023-01-27T05:45:59.367Z,5.69
2023-01-27T05:46:40.160Z,5.76
2023-01-27T05:47:20.223Z,5.70
2023-01-27T05:48:00.174Z,5.60
2023-01-27T05:48:46.234Z,5.70
2023-01-27T05:49:26.181Z,5.57
2023-01-27T05:50:06.202Z,5.74
2023-01-27T05:50:46.161Z,5.81
2023-01-27T05:51:28.305Z,5.78
2023-01-27T05:52:08.166Z,5.67
2023-01-27T05:52:48.159Z,5.67
2023-01-27T05:53:29.113Z,5.50
2023-01-27T05:54:10.299Z,5.65
2023-01-27T05:54:50.138Z,5.67
2023-01-27T05:55:30.176Z,5.68
2023-01-27T05:56:12.129Z,5.72
2023-01-27T05:56:52.201Z,5.65
2023-01-27T05:57:32.240Z,5.56
2023-01-27T05:58:13.155Z,5.63
2023-01-27T05:58:53.118Z,5.58
2023-01-27T05:59:33.204Z,5.63
2023-01-27T06:00:14.216Z,5.58
2023-01-27T06:00:54.243Z,5.67
2023-01-27T06:01:40.147Z,5.76
2023-01-27T06:02:22.646Z,5.47
2023-01-27T06:03:03.325Z,5.64
2023-01-27T06:03:46.475Z,5.60
2023-01-27T06:04:27.168Z,5.76
2023-01-27T06:05:07.193Z,5.82
2023-01-27T06:06:01.121Z,5.84
2023-01-27T06:06:41.205Z,5.76
2023-01-27T06:07:21.142Z,5.67
2023-01-27T06:08:01.203Z,5.79
2023-01-27T06:08:42.170Z,5.87
2023-01-27T06:09:22.182Z,5.77
2023-01-27T06:10:02.130Z,5.74
2023-01-27T06:10:42.175Z,5.89
2023-01-27T06:11:24.136Z,5.54
2023-01-27T06:12:04.163Z,5.62
2023-01-27T06:12:44.084Z,5.72
2023-01-27T06:13:24.122Z,5.79
2023-01-27T06:14:04.126Z,5.77
2023-01-27T06:14:44.275Z,5.74
2023-01-27T06:15:24.117Z,5.69
2023-01-27T06:16:04.355Z,5.74
2023-01-27T06:16:45.187Z,5.73
2023-01-27T06:17:25.232Z,5.75
2023-01-27T06:18:05.095Z,5.88
2023-01-27T06:18:46.151Z,5.78
2023-01-27T06:19:27.099Z,5.80
2023-01-27T06:20:07.151Z,5.79
2023-01-27T06:20:48.125Z,5.77
2023-01-27T06:21:28.209Z,5.75
2023-01-27T06:22:09.101Z,5.70
2023-01-27T06:22:50.531Z,5.76
2023-01-27T06:23:30.113Z,5.83
2023-01-27T06:24:12.569Z,5.85
2023-01-27T06:24:54.120Z,5.71
2023-01-27T06:25:34.168Z,5.86
2023-01-27T06:26:18.099Z,5.85
2023-01-27T06:26:58.151Z,5.85
2023-01-27T06:27:38.138Z,5.94
2023-01-27T06:28:28.582Z,5.93
2023-01-27T06:29:10.104Z,5.95
2023-01-27T06:29:50.161Z,5.85
2023-01-27T06:30:31.111Z,5.90
2023-01-27T06:31:27.419Z,5.76
2023-01-27T06:32:07.109Z,5.84
2023-01-27T06:32:47.122Z,5.92
2023-01-27T06:33:28.097Z,5.78
2023-01-27T06:34:08.161Z,5.97
2023-01-27T06:34:48.107Z,5.67
2023-01-27T06:35:28.178Z,5.71
2023-01-27T06:36:15.121Z,5.37
2023-01-27T06:36:55.133Z,5.55
2023-01-27T06:37:37.102Z,5.40
2023-01-27T06:38:20.165Z,5.50
2023-01-27T06:39:00.076Z,5.52
2023-01-27T06:39:40.215Z,5.50
2023-01-27T06:40:20.141Z,5.44
2023-01-27T06:41:00.182Z,5.46
2023-01-27T06:41:41.119Z,5.36
2023-01-27T06:42:21.147Z,5.50
2023-01-27T06:43:01.096Z,5.23
2023-01-27T06:43:41.212Z,5.24
2023-01-27T06:44:21.089Z,5.36
2023-01-27T06:45:01.142Z,5.49
2023-01-27T06:45:42.092Z,5.42
2023-01-27T06:46:22.181Z,5.37
2023-01-27T06:47:03.096Z,5.39
2023-01-27T06:47:43.118Z,5.60
2023-01-27T06:48:23.065Z,5.36
2023-01-27T06:49:03.105Z,5.40
2023-01-27T06:49:44.065Z,5.57
2023-01-27T06:50:24.140Z,5.70
2023-01-27T06:51:04.054Z,5.71
2023-01-27T06:51:44.152Z,5.60
2023-01-27T06:52:24.067Z,5.76
2023-01-27T06:53:10.117Z,5.76
2023-01-27T06:53:51.095Z,5.70
2023-01-27T06:54:31.123Z,5.85
2023-01-27T06:55:12.250Z,5.71
2023-01-27T06:55:52.106Z,5.79
2023-01-27T06:56:32.059Z,5.65
2023-01-27T06:57:12.213Z,5.82
2023-01-27T06:57:55.089Z,5.83
2023-01-27T06:58:37.123Z,5.82
2023-01-27T06:59:17.097Z,5.74
2023-01-27T06:59:57.140Z,5.82
2023-01-27T07:00:37.064Z,5.78
2023-01-27T07:01:17.430Z,5.93
2023-01-27T07:01:58.110Z,5.89
2023-01-27T07:02:38.183Z,5.79
2023-01-27T07:03:20.128Z,5.91
2023-01-27T07:04:00.099Z,5.88
2023-01-27T07:04:40.046Z,5.68
2023-01-27T07:05:20.192Z,5.81
2023-01-27T07:06:00.080Z,5.79
2023-01-27T07:06:41.124Z,5.69
2023-01-27T07:07:21.049Z,5.68
2023-01-27T07:08:01.152Z,5.82
2023-01-27T07:08:41.259Z,5.81
2023-01-27T07:09:21.090Z,5.81
2023-01-27T07:10:01.054Z,5.71
2023-01-27T07:10:41.113Z,5.75
2023-01-27T07:11:22.041Z,5.69
2023-01-27T07:12:02.134Z,5.62
2023-01-27T07:12:44.070Z,5.76
2023-01-27T07:13:24.194Z,5.89
2023-01-27T07:14:04.281Z,5.80
2023-01-27T07:14:44.132Z,5.81
2023-01-27T07:15:24.054Z,5.78
2023-01-27T07:16:04.221Z,5.66
2023-01-27T07:16:44.032Z,5.75
2023-01-27T07:17:24.154Z,5.76
2023-01-27T07:18:06.033Z,5.90
2023-01-27T07:18:46.131Z,5.84
2023-01-27T07:19:26.066Z,5.74
2023-01-27T07:20:06.127Z,5.80
2023-01-27T07:20:47.057Z,5.94
2023-01-27T07:21:27.133Z,5.90
2023-01-27T07:22:08.059Z,5.92
2023-01-27T07:23:02.066Z,5.97
2023-01-27T07:23:56.062Z,5.86
2023-01-27T07:24:43.064Z,6.01
2023-01-27T07:25:17.119Z,6.00
2023-01-27T07:26:09.828Z,6.10
2023-01-27T07:26:49.155Z,6.03
2023-01-27T07:27:36.040Z,6.07
2023-01-27T07:28:10.257Z,6.13
2023-01-27T07:28:57.017Z,6.11
2023-01-27T07:29:31.090Z,5.96
2023-01-27T07:30:12.451Z,5.93
2023-01-27T07:30:53.287Z,6.11
2023-01-27T07:31:33.055Z,6.12
2023-01-27T07:32:14.123Z,6.10
2023-01-27T07:32:57.018Z,6.19
2023-01-27T07:33:37.319Z,6.13
2023-01-27T07:34:18.011Z,6.20
2023-01-27T07:34:58.078Z,6.23
2023-01-27T07:35:38.049Z,6.23
2023-01-27T07:36:18.082Z,6.32
2023-01-27T07:36:59.021Z,6.17
2023-01-27T07:37:39.144Z,6.15
2023-01-27T07:38:19.038Z,6.17
2023-01-27T07:38:59.073Z,6.31
2023-01-27T07:39:40.032Z,6.28
2023-01-27T07:40:20.093Z,6.17
2023-01-27T07:41:01.030Z,6.26
2023-01-27T07:41:41.085Z,6.10
2023-01-27T07:42:21.026Z,6.13
2023-01-27T07:43:05.067Z,6.20
2023-01-27T07:43:45.022Z,6.16
2023-01-27T07:44:25.172Z,6.23
2023-01-27T07:45:06.031Z,6.17
2023-01-27T07:45:48.867Z,6.18
2023-01-27T07:46:30.098Z,6.30
2023-01-27T07:47:10.091Z,6.37
2023-01-27T07:47:50.023Z,6.20
2023-01-27T07:48:30.061Z,6.27
2023-01-27T07:49:11.005Z,6.33
2023-01-27T07:49:51.412Z,6.33
2023-01-27T07:50:31.031Z,6.27
2023-01-27T07:51:11.073Z,6.18
2023-01-27T07:51:51.028Z,6.26
2023-01-27T07:52:31.096Z,6.23
2023-01-27T07:53:12.028Z,6.24
2023-01-27T07:53:52.125Z,6.26
2023-01-27T07:54:32.065Z,6.22
2023-01-27T07:55:13.344Z,6.31
2023-01-27T07:55:52.996Z,6.19
2023-01-27T07:56:36.230Z,6.33
2023-01-27T07:57:16.003Z,6.35
2023-01-27T07:57:56.118Z,6.24
2023-01-27T07:58:36.023Z,6.25
2023-01-27T07:59:17.057Z,6.15
2023-01-27T08:00:01.999Z,6.19
2023-01-27T08:00:43.087Z,6.30
2023-01-27T08:01:23.000Z,6.25
2023-01-27T08:02:03.060Z,6.19
2023-01-27T08:02:42.999Z,6.37
2023-01-27T08:03:25.440Z,6.32
2023-01-27T08:04:12.008Z,6.31
2023-01-27T08:04:53.663Z,6.26
2023-01-27T08:05:44.018Z,6.44
2023-01-27T08:06:17.674Z,6.25
2023-01-27T08:07:05.006Z,6.34
2023-01-27T08:07:38.676Z,6.43
2023-01-27T08:08:19.094Z,6.41
2023-01-27T08:08:53.121Z,6.41
2023-01-27T08:09:26.664Z,6.55
2023-01-27T08:10:07.968Z,6.43
2023-01-27T08:10:46.978Z,6.53
2023-01-27T08:11:20.705Z,6.62
2023-01-27T08:12:01.003Z,6.59
2023-01-27T08:12:35.063Z,6.60
2023-01-27T08:13:08.703Z,6.52
2023-01-27T08:13:50.013Z,6.47
2023-01-27T08:14:24.072Z,6.62
2023-01-27T08:14:57.656Z,6.48
2023-01-27T08:15:38.983Z,6.56
2023-01-27T08:16:18.077Z,6.54
2023-01-27T08:16:51.689Z,6.44
2023-01-27T08:17:32.013Z,6.57
2023-01-27T08:18:06.070Z,6.59
2023-01-27T08:18:39.847Z,6.49
2023-01-27T08:19:21.016Z,6.42
2023-01-27T08:19:55.039Z,6.52
2023-01-27T08:20:28.787Z,6.47
2023-01-27T08:21:11.992Z,6.42
2023-01-27T08:21:46.019Z,6.44
2023-01-27T08:22:22.733Z,6.48
2023-01-27T08:23:02.997Z,6.49
2023-01-27T08:23:39.022Z,6.48
2023-01-27T08:24:12.911Z,6.51
2023-01-27T08:24:54.008Z,6.42
2023-01-27T08:25:28.055Z,6.55
2023-01-27T08:26:04.269Z,6.50
2023-01-27T08:26:43.978Z,6.53
2023-01-27T08:27:18.066Z,6.42
2023-01-27T08:27:54.549Z,6.59
2023-01-27T08:28:37.958Z,6.59
2023-01-27T08:29:12.023Z,6.46
2023-01-27T08:29:45.668Z,6.53
2023-01-27T08:30:27.121Z,6.65
2023-01-27T08:31:02.024Z,6.64
2023-01-27T08:31:35.880Z,6.64
2023-01-27T08:32:16.988Z,6.68
2023-01-27T08:32:51.046Z,6.58
2023-01-27T08:33:24.656Z,6.59
2023-01-27T08:34:04.961Z,6.75
2023-01-27T08:34:39.007Z,6.75
2023-01-27T08:35:12.647Z,6.64
2023-01-27T08:35:53.003Z,6.53
2023-01-27T08:36:28.999Z,6.61
2023-01-27T08:37:03.246Z,6.51
2023-01-27T08:37:42.970Z,6.51
2023-01-27T08:38:20.020Z,6.51
2023-01-27T08:38:53.770Z,6.49
2023-01-27T08:39:34.007Z,6.58
2023-01-27T08:40:08.044Z,6.45
2023-01-27T08:40:43.063Z,6.57
2023-01-27T08:41:30.992Z,6.56
2023-01-27T08:42:05.032Z,6.58
2023-01-27T08:42:51.957Z,6.60
2023-01-27T08:43:26.011Z,6.56
2023-01-27T08:44:13.964Z,6.67
2023-01-27T08:44:48.015Z,6.59
2023-01-27T08:45:35.012Z,6.68
2023-01-27T08:46:09.102Z,6.71
2023-01-27T08:46:55.999Z,6.77
2023-01-27T08:47:29.971Z,6.75
2023-01-27T08:48:16.977Z,6.64
2023-01-27T08:48:51.687Z,6.65
2023-01-27T08:49:38.946Z,6.80
2023-01-27T08:50:13.484Z,6.66
2023-01-27T08:51:02.948Z,6.69
2023-01-27T08:51:36.979Z,6.75
2023-01-27T08:52:16.981Z,6.65
2023-01-27T08:53:00.885Z,6.61
2023-01-27T08:53:42.923Z,6.67
2023-01-27T08:54:23.018Z,6.59
2023-01-27T08:55:03.932Z,6.62
2023-01-27T08:55:44.023Z,6.70
2023-01-27T08:56:23.953Z,6.65
2023-01-27T08:57:03.995Z,6.56
2023-01-27T08:57:44.959Z,6.50
2023-01-27T08:58:26.106Z,6.54
2023-01-27T08:59:07.004Z,6.50
2023-01-27T08:59:47.074Z,6.51
2023-01-27T09:00:30.949Z,6.55
2023-01-27T09:01:13.065Z,6.56
2023-01-27T09:01:52.952Z,6.59
2023-01-27T09:02:33.006Z,6.61
2023-01-27T09:03:12.970Z,6.50
2023-01-27T09:03:52.974Z,6.38
2023-01-27T09:04:32.993Z,6.48
2023-01-27T09:05:14.060Z,6.58
2023-01-27T09:05:54.947Z,6.59
2023-01-27T09:06:35.062Z,6.63
2023-01-27T09:07:15.934Z,6.55
2023-01-27T09:07:55.996Z,6.58
2023-01-27T09:08:37.111Z,6.52
2023-01-27T09:09:18.055Z,6.40
2023-01-27T09:10:12.775Z,6.46
2023-01-27T09:10:53.981Z,6.40
2023-01-27T09:11:33.917Z,6.42
2023-01-27T09:12:13.948Z,6.44
2023-01-27T09:12:54.921Z,6.46
2023-01-27T09:13:35.007Z,6.53
2023-01-27T09:14:14.938Z,6.57
2023-01-27T09:14:58.082Z,6.67
2023-01-27T09:15:38.917Z,6.67
2023-01-27T09:16:19.058Z,6.74
2023-01-27T09:16:58.942Z,6.54
2023-01-27T09:17:38.978Z,6.74
2023-01-27T09:18:18.942Z,6.76
2023-01-27T09:18:58.954Z,6.67
2023-01-27T09:19:39.918Z,6.76
2023-01-27T09:20:22.430Z,6.57
2023-01-27T09:21:01.913Z,6.59
2023-01-27T09:21:41.987Z,6.51
2023-01-27T09:22:21.942Z,6.60
2023-01-27T09:23:03.032Z,6.47
2023-01-27T09:23:42.907Z,6.62
2023-01-27T09:24:22.997Z,6.68
2023-01-27T09:25:02.922Z,6.76
2023-01-27T09:25:42.945Z,6.71
2023-01-27T09:26:22.893Z,6.66
2023-01-27T09:27:02.965Z,6.60
2023-01-27T09:27:42.936Z,6.72
2023-01-27T09:28:23.016Z,6.75
2023-01-27T09:29:02.936Z,6.71
2023-01-27T09:29:42.972Z,6.55
2023-01-27T09:30:22.976Z,6.67
2023-01-27T09:31:09.501Z,6.73
2023-01-27T09:31:49.939Z,6.64
2023-01-27T09:32:29.976Z,6.56
2023-01-27T09:33:10.204Z,6.58
2023-01-27T09:33:50.987Z,6.61
2023-01-27T09:34:31.910Z,6.48
2023-01-27T09:35:13.359Z,6.59